createdAt,value
2018-02-08T00:00:21.740Z,99600.98
2018-02-08T00:02:50.283Z,99592.64
2018-02-08T00:05:19.113Z,99585.91
2018-02-08T00:07:47.668Z,99567.94
2018-02-08T00:10:16.225Z,99568.27
2018-02-08T00:12:45.884Z,99575.61
2018-02-08T00:15:14.436Z,99556.83
2018-02-08T00:17:43.025Z,99557.64
2018-02-08T00:20:12.392Z,99555.56
2018-02-08T00:22:46.628Z,99554.00
2018-02-08T00:25:15.455Z,99545.59
2018-02-08T00:27:43.995Z,99524.90
2018-02-08T00:30:13.315Z,99525.62
2018-02-08T00:32:42.052Z,99524.69
2018-02-08T00:35:10.599Z,99506.81
2018-02-08T00:37:39.144Z,99511.76
2018-02-08T00:40:08.788Z,99511.61
2018-02-08T00:42:37.335Z,99523.94
2018-02-08T00:45:06.645Z,99539.20
2018-02-08T00:47:35.472Z,99525.78
2018-02-08T00:50:04.034Z,99510.77
2018-02-08T00:52:32.573Z,99497.34
2018-02-08T00:55:01.172Z,99493.61
2018-02-08T00:57:30.484Z,99495.34
2018-02-08T00:59:59.796Z,99507.14
2018-02-08T01:02:28.402Z,99528.70
2018-02-08T01:04:56.949Z,99529.92
2018-02-08T01:07:25.684Z,99531.09
2018-02-08T01:09:54.564Z,99517.65
2018-02-08T01:12:23.261Z,99517.95
2018-02-08T01:14:51.839Z,99522.53
2018-02-08T01:17:20.839Z,99529.09
2018-02-08T01:19:49.516Z,99536.75
2018-02-08T01:22:18.166Z,99529.84
2018-02-08T01:24:47.256Z,99517.64
2018-02-08T01:27:16.704Z,99520.59
2018-02-08T01:29:45.344Z,99536.82
2018-02-08T01:32:14.998Z,99545.03
2018-02-08T01:34:43.684Z,99572.40
2018-02-08T01:37:12.322Z,99591.23
2018-02-08T01:39:42.799Z,99584.36
2018-02-08T01:42:11.375Z,99593.61
2018-02-08T01:44:40.061Z,99590.58
2018-02-08T01:47:09.263Z,99592.94
2018-02-08T01:49:46.860Z,99592.55
2018-02-08T01:52:15.739Z,99599.19
2018-02-08T01:54:45.964Z,99599.12
2018-02-08T01:57:14.508Z,99589.64
2018-02-08T01:59:43.197Z,99617.52
2018-02-08T02:02:11.744Z,99608.61
2018-02-08T02:04:40.298Z,99594.91
2018-02-08T02:07:09.658Z,99591.08
2018-02-08T02:09:38.963Z,99554.13
2018-02-08T02:12:08.267Z,99507.81
2018-02-08T02:14:37.760Z,99520.14
2018-02-08T02:17:07.072Z,99522.15
2018-02-08T02:19:35.639Z,99502.62
2018-02-08T02:22:05.001Z,99483.81
2018-02-08T02:24:33.549Z,99469.33
2018-02-08T02:27:02.088Z,99464.22
2018-02-08T02:29:30.802Z,99468.53
2018-02-08T02:31:59.365Z,99458.17
2018-02-08T02:34:28.675Z,99458.47
2018-02-08T02:36:58.324Z,99460.91
2018-02-08T02:39:26.933Z,99441.45
2018-02-08T02:41:55.479Z,99427.29
2018-02-08T02:44:24.080Z,99409.66
2018-02-08T02:46:52.627Z,99413.24
2018-02-08T02:49:21.944Z,99398.75
2018-02-08T02:51:50.530Z,99401.73
2018-02-08T02:54:19.108Z,99406.51
2018-02-08T02:56:47.652Z,99449.91
2018-02-08T02:59:16.503Z,99499.63
2018-02-08T03:01:45.044Z,99501.81
2018-02-08T03:04:14.352Z,99470.90
2018-02-08T03:06:43.971Z,99473.64
2018-02-08T03:09:12.511Z,99479.40
2018-02-08T03:11:41.066Z,99495.31
2018-02-08T03:14:09.844Z,99487.02
2018-02-08T03:16:38.388Z,99470.21
2018-02-08T03:19:07.696Z,99463.97
2018-02-08T03:21:37.052Z,99434.49
2018-02-08T03:24:05.596Z,99412.22
2018-02-08T03:26:34.139Z,99433.80
2018-02-08T03:29:03.563Z,99446.17
2018-02-08T03:31:32.130Z,99440.66
2018-02-08T03:34:01.423Z,99435.80
2018-02-08T03:36:30.159Z,99411.49
2018-02-08T03:38:58.704Z,99404.84
2018-02-08T03:41:28.012Z,99413.13
2018-02-08T03:43:57.479Z,99430.08
2018-02-08T03:46:26.024Z,99440.91
2018-02-08T03:48:54.592Z,99463.97
2018-02-08T03:51:23.418Z,99455.75
2018-02-08T03:53:51.956Z,99431.02
2018-02-08T03:56:20.500Z,99443.98
2018-02-08T03:58:49.092Z,99459.23
2018-02-08T04:01:17.640Z,99458.90
2018-02-08T04:03:46.179Z,99450.92
2018-02-08T04:06:15.534Z,99448.28
2018-02-08T04:08:44.076Z,99459.06
2018-02-08T04:11:12.621Z,99467.85
2018-02-08T04:13:41.203Z,99467.27
2018-02-08T04:16:09.740Z,99469.17
2018-02-08T04:18:38.292Z,99481.54
2018-02-08T04:21:07.760Z,99474.09
2018-02-08T04:23:36.299Z,99477.61
2018-02-08T04:26:04.839Z,99474.02
2018-02-08T04:28:33.580Z,99487.85
2018-02-08T04:31:02.128Z,99479.52
2018-02-08T04:33:31.432Z,99473.19
2018-02-08T04:36:00.897Z,99468.55
2018-02-08T04:38:47.341Z,99463.48
2018-02-08T04:41:34.612Z,99473.61
2018-02-08T04:44:23.744Z,99486.95
2018-02-08T04:50:08.240Z,99506.31
2018-02-08T04:52:37.152Z,99517.84
2018-02-08T04:55:05.698Z,99526.52
2018-02-08T04:57:34.239Z,99532.41
2018-02-08T05:00:03.048Z,99531.47
2018-02-08T05:02:32.379Z,99538.23
2018-02-08T05:05:00.928Z,99539.15
2018-02-08T05:07:30.428Z,99541.14
2018-02-08T05:09:59.747Z,99540.48
2018-02-08T05:12:28.286Z,99545.36
2018-02-08T05:14:56.984Z,99554.97
2018-02-08T05:17:25.533Z,99560.06
2018-02-08T05:19:54.081Z,99553.81
2018-02-08T05:22:23.549Z,99557.75
2018-02-08T05:24:52.091Z,99553.38
2018-02-08T05:27:20.690Z,99555.16
2018-02-08T05:29:49.684Z,99547.91
2018-02-08T05:32:18.224Z,99564.41
2018-02-08T05:34:47.532Z,99571.93
2018-02-08T05:37:16.356Z,99555.59
2018-02-08T05:39:44.903Z,99577.33
2018-02-08T05:42:13.448Z,99569.75
2018-02-08T05:44:42.144Z,99578.39
2018-02-08T05:47:10.688Z,99584.14
2018-02-08T05:49:39.248Z,99570.27
2018-02-08T05:52:07.835Z,99570.17
2018-02-08T05:54:36.412Z,99567.39
2018-02-08T05:57:04.967Z,99573.52
2018-02-08T05:59:33.750Z,99582.27
2018-02-08T06:02:02.300Z,99583.37
2018-02-08T06:04:30.850Z,99589.94
2018-02-08T06:06:59.545Z,99587.86
2018-02-08T06:09:28.088Z,99572.53
2018-02-08T06:11:57.156Z,99572.84
2018-02-08T06:14:26.948Z,99579.41
2018-02-08T06:16:55.496Z,99573.84
2018-02-08T06:19:24.044Z,99574.97
2018-02-08T06:21:53.407Z,99573.91
2018-02-08T06:24:21.961Z,99569.86
2018-02-08T06:26:50.535Z,99569.13
2018-02-08T06:29:19.137Z,99571.48
2018-02-08T06:31:47.759Z,99561.56
2018-02-08T06:34:17.079Z,99561.70
2018-02-08T06:36:46.535Z,99561.72
2018-02-08T06:39:15.085Z,99564.28
2018-02-08T06:41:43.636Z,99562.12
2018-02-08T06:44:13.160Z,99560.09
2018-02-08T06:46:42.476Z,99556.35
2018-02-08T06:49:11.031Z,99562.44
2018-02-08T06:51:40.387Z,99570.89
2018-02-08T06:54:08.937Z,99567.28
2018-02-08T06:56:37.483Z,99567.22
2018-02-08T06:59:07.983Z,99573.99
2018-02-08T07:01:36.533Z,99575.80
2018-02-08T07:04:05.080Z,99572.09
2018-02-08T07:06:34.556Z,99567.95
2018-02-08T07:09:05.174Z,99571.00
2018-02-08T07:11:33.720Z,99580.06
2018-02-08T07:14:03.253Z,99576.27
2018-02-08T07:16:31.804Z,99567.36
2018-02-08T07:19:01.116Z,99556.00
2018-02-08T07:21:30.041Z,99559.73
2018-02-08T07:23:58.587Z,99563.27
2018-02-08T07:26:27.122Z,99564.28
2018-02-08T07:28:56.008Z,99561.39
2018-02-08T07:31:24.556Z,99554.28
2018-02-08T07:33:53.109Z,99543.77
2018-02-08T07:36:22.471Z,99546.03
2018-02-08T07:38:51.022Z,99545.72
2018-02-08T07:41:19.575Z,99540.97
2018-02-08T07:43:49.048Z,99543.79
2018-02-08T07:46:17.600Z,99547.84
2018-02-08T07:48:46.148Z,99546.83
2018-02-08T07:51:15.909Z,99548.25
2018-02-08T07:53:44.456Z,99539.49
2018-02-08T07:56:13.006Z,99534.08
2018-02-08T07:58:45.735Z,99536.64
2018-02-08T08:01:14.280Z,99531.72
2018-02-08T08:03:43.608Z,99534.89
2018-02-08T08:06:12.329Z,99532.27
2018-02-08T08:08:40.884Z,99528.31
2018-02-08T08:11:09.437Z,99528.05
2018-02-08T08:13:38.905Z,99531.75
2018-02-08T08:16:07.880Z,99532.73
2018-02-08T08:18:36.436Z,99530.39
2018-02-08T08:21:05.161Z,99526.98
2018-02-08T08:23:33.717Z,99521.66
2018-02-08T08:26:02.272Z,99530.72
2018-02-08T08:28:31.676Z,99531.06
2018-02-08T08:31:01.032Z,99523.65
2018-02-08T08:33:29.576Z,99526.86
2018-02-08T08:35:58.509Z,99536.63
2018-02-08T08:38:27.065Z,99532.23
2018-02-08T08:40:55.612Z,99529.23
2018-02-08T08:43:24.977Z,99531.97
2018-02-08T08:45:53.533Z,99529.31
2018-02-08T08:48:22.076Z,99527.63
2018-02-08T08:50:51.649Z,99518.03
2018-02-08T08:53:20.205Z,99512.22
2018-02-08T08:55:48.760Z,99517.15
2018-02-08T08:58:18.418Z,99516.34
2018-02-08T09:00:46.979Z,99511.37
2018-02-08T09:03:15.531Z,99499.53
2018-02-08T09:05:44.173Z,99495.97
2018-02-08T09:08:12.729Z,99499.62
2018-02-08T09:10:41.286Z,99497.27
2018-02-08T09:13:10.137Z,99494.48
2018-02-08T09:15:38.704Z,99493.20
2018-02-08T09:18:07.252Z,99497.77
2018-02-08T09:20:35.848Z,99498.24
2018-02-08T09:23:04.405Z,99498.72
2018-02-08T09:25:33.726Z,99496.89
2018-02-08T09:28:02.648Z,99486.73
2018-02-08T09:30:31.209Z,99493.59
2018-02-08T09:32:59.764Z,99490.00
2018-02-08T09:35:28.701Z,99492.16
2018-02-08T09:37:57.250Z,99484.84
2018-02-08T09:40:25.803Z,99486.33
2018-02-08T09:42:55.280Z,99472.63
2018-02-08T09:45:23.836Z,99473.66
2018-02-08T09:47:52.393Z,99472.16
2018-02-08T09:50:21.946Z,99470.87
2018-02-08T09:52:50.504Z,99461.75
2018-02-08T09:55:19.060Z,99465.42
2018-02-08T09:57:48.432Z,99467.30
2018-02-08T10:00:16.993Z,99458.18
2018-02-08T10:02:45.550Z,99455.05
2018-02-08T10:05:14.473Z,99458.38
2018-02-08T10:07:43.784Z,99444.67
2018-02-08T10:10:12.336Z,99439.34
2018-02-08T10:12:41.243Z,99445.74
2018-02-08T10:15:09.793Z,99444.11
2018-02-08T10:17:39.132Z,99439.04
2018-02-08T10:20:08.129Z,99432.05
2018-02-08T10:22:36.785Z,99435.66
2018-02-08T10:25:05.335Z,99418.16
2018-02-08T10:27:34.748Z,99411.69
2018-02-08T10:30:04.101Z,99407.41
2018-02-08T10:32:32.651Z,99412.14
2018-02-08T10:35:01.263Z,99404.84
2018-02-08T10:37:29.850Z,99405.50
2018-02-08T10:39:58.403Z,99397.39
2018-02-08T10:42:27.290Z,99389.44
2018-02-08T10:44:55.843Z,99393.34
2018-02-08T10:47:25.166Z,99392.11
2018-02-08T10:49:53.997Z,99387.47
2018-02-08T10:52:22.551Z,99384.33
2018-02-08T10:54:51.157Z,99378.22
2018-02-08T10:57:19.951Z,99371.45
2018-02-08T10:59:48.505Z,99367.89
2018-02-08T11:02:17.064Z,99360.14
2018-02-08T11:04:45.815Z,99361.44
2018-02-08T11:07:14.373Z,99358.95
2018-02-08T11:09:42.928Z,99349.86
2018-02-08T11:12:11.536Z,99344.72
2018-02-08T11:14:40.083Z,99342.16
2018-02-08T11:17:09.401Z,99338.36
2018-02-08T11:19:38.023Z,99335.05
2018-02-08T11:22:06.583Z,99332.32
2018-02-08T11:24:35.136Z,99331.75
2018-02-08T11:27:04.694Z,99331.88
2018-02-08T11:29:33.244Z,99326.76
2018-02-08T11:32:01.800Z,99321.12
2018-02-08T11:34:31.168Z,99319.02
2018-02-08T11:36:59.703Z,99322.38
2018-02-08T11:39:28.300Z,99315.24
2018-02-08T11:41:57.009Z,99320.38
2018-02-08T11:44:25.561Z,99307.33
2018-02-08T11:46:54.112Z,99305.77
2018-02-08T11:49:23.681Z,99300.66
2018-02-08T11:51:52.243Z,99296.87
2018-02-08T11:54:20.836Z,99299.98
2018-02-08T11:56:50.304Z,99297.88
2018-02-08T11:59:18.841Z,99294.61
2018-02-08T12:01:47.403Z,99287.81
2018-02-08T12:04:16.209Z,99292.34
2018-02-08T12:06:44.760Z,99287.45
2018-02-08T12:09:13.401Z,99288.46
2018-02-08T12:11:42.775Z,99289.41
2018-02-08T12:14:12.108Z,99286.09
2018-02-08T12:16:40.673Z,99285.39
2018-02-08T12:19:10.042Z,99290.13
2018-02-08T12:21:38.609Z,99284.94
2018-02-08T12:24:07.160Z,99281.92
2018-02-08T12:26:36.725Z,99267.77
2018-02-08T12:29:05.293Z,99274.81
2018-02-08T12:31:33.857Z,99268.44
2018-02-08T12:34:02.469Z,99261.50
2018-02-08T12:36:31.031Z,99260.95
2018-02-08T12:39:00.396Z,99265.27
2018-02-08T12:41:29.872Z,99256.03
2018-02-08T12:43:58.429Z,99258.30
2018-02-08T12:46:26.988Z,99257.89
2018-02-08T12:48:55.704Z,99252.61
2018-02-08T12:51:24.273Z,99253.78
2018-02-08T12:53:53.626Z,99248.30
2018-02-08T12:56:22.412Z,99248.25
2018-02-08T12:58:50.984Z,99239.73
2018-02-08T13:01:20.308Z,99241.77
2018-02-08T13:03:48.915Z,99250.98
2018-02-08T13:06:17.479Z,99251.14
2018-02-08T13:08:46.033Z,99243.84
2018-02-08T13:11:15.405Z,99247.27
2018-02-08T13:13:43.964Z,99255.68
2018-02-08T13:16:12.524Z,99253.73
2018-02-08T13:18:42.012Z,99264.50
2018-02-08T13:21:12.081Z,99262.85
2018-02-08T13:23:40.665Z,99267.86
2018-02-08T13:26:09.581Z,99272.58
2018-02-08T13:28:38.140Z,99271.32
2018-02-08T13:31:06.732Z,99275.90
2018-02-08T13:33:35.380Z,99276.58
2018-02-08T13:36:03.986Z,99274.16
2018-02-08T13:38:32.540Z,99273.77
2018-02-08T13:41:01.280Z,99262.53
2018-02-08T13:43:29.840Z,99261.45
2018-02-08T13:45:58.468Z,99266.83
2018-02-08T13:48:27.927Z,99267.46
2018-02-08T13:51:01.629Z,99269.30
2018-02-08T13:56:36.808Z,99270.68
2018-02-08T13:59:11.269Z,99268.84
2018-02-08T14:01:43.223Z,99266.23
2018-02-08T14:04:11.864Z,99269.33
2018-02-08T14:06:40.445Z,99266.37
2018-02-08T14:09:09.004Z,99261.31
2018-02-08T14:11:37.624Z,99259.89
2018-02-08T14:14:06.954Z,99262.40
2018-02-08T14:16:35.519Z,99267.86
2018-02-08T14:19:04.282Z,99268.57
2018-02-08T14:21:32.845Z,99273.83
2018-02-08T14:24:02.168Z,99271.50
2018-02-08T14:26:31.104Z,99267.66
2018-02-08T14:28:59.669Z,99276.58
2018-02-08T14:31:28.236Z,99271.80
2018-02-08T14:33:57.028Z,99275.52
2018-02-08T14:36:26.348Z,99272.34
2018-02-08T14:38:54.904Z,99274.73
2018-02-08T14:41:23.607Z,99273.14
2018-02-08T14:43:52.177Z,99269.34
2018-02-08T14:46:20.749Z,99272.27
2018-02-08T14:48:49.466Z,99271.75
2018-02-08T14:51:18.028Z,99277.67
2018-02-08T14:53:46.584Z,99278.08
2018-02-08T14:56:15.375Z,99273.25
2018-02-08T14:58:43.944Z,99272.45
2018-02-08T15:01:13.264Z,99269.60
2018-02-08T15:03:41.970Z,99270.43
2018-02-08T15:06:11.300Z,99273.62
2018-02-08T15:08:39.848Z,99281.97
2018-02-08T15:11:09.320Z,99281.30
2018-02-08T15:13:38.648Z,99296.80
2018-02-08T15:16:07.196Z,99294.47
2018-02-08T15:18:36.592Z,99299.80
2018-02-08T15:21:05.929Z,99303.14
2018-02-08T15:23:34.476Z,99305.72
2018-02-08T15:26:03.111Z,99304.83
2018-02-08T15:28:31.683Z,99315.65
2018-02-08T15:31:00.240Z,99315.21
2018-02-08T15:33:28.852Z,99313.50
2018-02-08T15:35:57.423Z,99311.38
2018-02-08T15:38:25.975Z,99307.67
2018-02-08T15:40:54.836Z,99312.12
2018-02-08T15:43:23.389Z,99313.75
2018-02-08T15:45:51.972Z,99310.75
2018-02-08T15:48:20.854Z,99314.81
2018-02-08T15:50:49.417Z,99320.75
2018-02-08T15:53:17.976Z,99323.16
2018-02-08T15:55:46.592Z,99321.19
2018-02-08T15:58:15.164Z,99327.31
2018-02-08T16:00:43.748Z,99326.88
2018-02-08T16:03:13.228Z,99333.55
2018-02-08T16:05:42.568Z,99326.86
2018-02-08T16:08:11.124Z,99328.80
2018-02-08T16:10:39.880Z,99337.87
2018-02-08T16:13:08.500Z,99343.38
2018-02-08T16:15:37.817Z,99347.17
2018-02-08T16:18:06.536Z,99349.77
2018-02-08T16:20:35.108Z,99348.38
2018-02-08T16:23:04.433Z,99350.37
2018-02-08T16:25:33.163Z,99357.36
2018-02-08T16:28:01.722Z,99359.23
2018-02-08T16:30:30.284Z,99368.00
2018-02-08T16:32:59.666Z,99378.32
2018-02-08T16:35:29.020Z,99389.16
2018-02-08T16:37:57.649Z,99401.17
2018-02-08T16:40:26.493Z,99407.91
2018-02-08T16:42:55.066Z,99417.41
2018-02-08T16:45:23.634Z,99426.23
2018-02-08T16:47:52.360Z,99425.14
2018-02-08T16:50:22.457Z,99429.08
2018-02-08T16:52:51.088Z,99419.88
2018-02-08T16:55:19.809Z,99418.75
2018-02-08T16:57:48.400Z,99431.11
2018-02-08T17:00:17.031Z,99432.13
2018-02-08T17:02:45.780Z,99433.73
2018-02-08T17:05:14.351Z,99430.57
2018-02-08T17:07:42.924Z,99432.91
2018-02-08T17:10:12.489Z,99435.16
2018-02-08T17:12:41.099Z,99445.19
2018-02-08T17:15:09.667Z,99446.31
2018-02-08T17:17:38.386Z,99444.23
2018-02-08T17:20:06.962Z,99449.23
2018-02-08T17:22:36.430Z,99448.11
2018-02-08T17:25:05.483Z,99456.93
2018-02-08T17:27:34.961Z,99449.92
2018-02-08T17:30:04.378Z,99450.13
2018-02-08T17:32:33.406Z,99454.55
2018-02-08T17:35:01.996Z,99454.24
2018-02-08T17:37:31.383Z,99452.14
2018-02-08T17:40:00.016Z,99456.84
2018-02-08T17:42:28.580Z,99451.13
2018-02-08T17:44:57.912Z,99447.31
2018-02-08T17:47:26.533Z,99447.13
2018-02-08T17:49:55.382Z,99449.53
2018-02-08T17:52:23.975Z,99445.74
2018-02-08T17:54:57.721Z,99448.67
2018-02-08T17:57:26.283Z,99445.91
2018-02-08T17:59:54.892Z,99451.60
2018-02-08T18:02:23.501Z,99451.34
2018-02-08T18:04:52.841Z,99450.64
2018-02-08T18:07:21.548Z,99452.43
2018-02-08T18:09:50.120Z,99453.13
2018-02-08T18:12:18.695Z,99455.33
2018-02-08T18:14:47.308Z,99457.57
2018-02-08T18:17:16.648Z,99462.42
2018-02-08T18:19:45.214Z,99464.86
2018-02-08T18:22:13.946Z,99461.45
2018-02-08T18:24:42.531Z,99465.98
2018-02-08T18:27:11.084Z,99469.84
2018-02-08T18:29:39.775Z,99470.68
2018-02-08T18:32:08.391Z,99474.85
2018-02-08T18:34:36.952Z,99474.77
2018-02-08T18:37:05.852Z,99469.95
2018-02-08T18:39:34.408Z,99464.82
2018-02-08T18:42:02.977Z,99462.93
2018-02-08T18:44:32.029Z,99468.55
2018-02-08T18:47:01.351Z,99468.67
2018-02-08T18:49:30.929Z,99465.14
2018-02-08T18:51:59.638Z,99464.28
2018-02-08T18:54:29.249Z,99476.45
2018-02-08T18:56:58.648Z,99484.50
2018-02-08T18:59:28.239Z,99483.27
2018-02-08T19:01:56.807Z,99483.91
2018-02-08T19:04:25.373Z,99486.88
2018-02-08T19:06:54.124Z,99486.07
2018-02-08T19:09:23.450Z,99485.36
2018-02-08T19:11:52.934Z,99480.20
2018-02-08T19:14:21.771Z,99477.72
2018-02-08T19:16:50.356Z,99478.44
2018-02-08T19:19:18.929Z,99483.35
2018-02-08T19:21:47.595Z,99483.34
2018-02-08T19:24:16.153Z,99484.78
2018-02-08T19:26:44.713Z,99493.94
2018-02-08T19:29:14.277Z,99483.30
2018-02-08T19:31:43.608Z,99489.45
2018-02-08T19:34:12.168Z,99488.88
2018-02-08T19:36:41.723Z,99491.00
2018-02-08T19:39:10.651Z,99495.39
2018-02-08T19:41:39.980Z,99499.16
2018-02-08T19:44:08.600Z,99503.02
2018-02-08T19:46:37.925Z,99514.91
2018-02-08T19:49:06.609Z,99524.61
2018-02-08T19:51:35.487Z,99528.25
2018-02-08T19:54:04.049Z,99537.53
2018-02-08T19:56:32.634Z,99535.13
2018-02-08T19:59:01.246Z,99533.43
2018-02-08T20:01:29.814Z,99534.71
2018-02-08T20:03:58.374Z,99534.73
2018-02-08T20:06:27.121Z,99534.36
2018-02-08T20:08:56.513Z,99535.48
2018-02-08T20:11:25.079Z,99538.14
2018-02-08T20:13:54.062Z,99538.28
2018-02-08T20:16:22.692Z,99544.98
2018-02-08T20:18:52.008Z,99544.92
2018-02-08T20:21:20.901Z,99540.52
2018-02-08T20:23:50.236Z,99537.11
2018-02-08T20:26:18.789Z,99535.73
2018-02-08T20:28:47.400Z,99536.88
2018-02-08T20:31:15.988Z,99541.70
2018-02-08T20:33:44.568Z,99542.69
2018-02-08T20:36:13.569Z,99548.34
2018-02-08T20:38:42.137Z,99558.78
2018-02-08T20:41:10.719Z,99555.24
2018-02-08T20:43:39.497Z,99547.79
2018-02-08T20:46:08.057Z,99544.57
2018-02-08T20:48:36.637Z,99552.85
2018-02-08T20:51:06.150Z,99564.75
2018-02-08T20:53:34.708Z,99568.40
2018-02-08T20:56:04.037Z,99574.45
2018-02-08T20:58:32.857Z,99580.05
2018-02-08T21:01:01.417Z,99578.99
2018-02-08T21:03:29.974Z,99586.00
2018-02-08T21:05:59.370Z,99583.56
2018-02-08T21:08:28.685Z,99582.00
2018-02-08T21:10:58.004Z,99575.58
2018-02-08T21:13:26.659Z,99578.36
2018-02-08T21:15:55.984Z,99575.27
2018-02-08T21:18:24.540Z,99575.31
2018-02-08T21:20:54.318Z,99575.53
2018-02-08T21:23:22.877Z,99575.47
2018-02-08T21:25:51.442Z,99569.33
2018-02-08T21:28:20.061Z,99572.84
2018-02-08T21:30:48.608Z,99573.46
2018-02-08T21:33:17.170Z,99577.10
2018-02-08T21:35:46.537Z,99576.44
2018-02-08T21:38:15.100Z,99571.80
2018-02-08T21:40:43.670Z,99571.03
2018-02-08T21:43:12.583Z,99563.97
2018-02-08T21:45:41.140Z,99566.02
2018-02-08T21:48:09.711Z,99569.33
2018-02-08T21:50:39.111Z,99565.21
2018-02-08T21:53:07.669Z,99568.31
2018-02-08T21:55:36.226Z,99577.25
2018-02-08T21:58:04.930Z,99586.27
2018-02-08T22:00:33.496Z,99585.62
2018-02-08T22:03:02.073Z,99581.45
2018-02-08T22:05:30.865Z,99583.13
2018-02-08T22:07:59.425Z,99580.27
2018-02-08T22:10:27.985Z,99588.61
2018-02-08T22:12:56.742Z,99592.70
2018-02-08T22:15:25.303Z,99580.55
2018-02-08T22:17:53.869Z,99582.87
2018-02-08T22:20:22.572Z,99582.03
2018-02-08T22:22:51.131Z,99586.23
2018-02-08T22:25:19.689Z,99578.09
2018-02-08T22:27:49.444Z,99574.89
2018-02-08T22:30:18.012Z,99575.36
2018-02-08T22:32:46.576Z,99577.25
2018-02-08T22:35:15.202Z,99575.61
2018-02-08T22:37:43.776Z,99572.91
2018-02-08T22:40:12.337Z,99564.50
2018-02-08T22:42:41.080Z,99567.91
2018-02-08T22:45:09.665Z,99568.58
2018-02-08T22:47:38.996Z,99571.27
2018-02-08T22:50:07.827Z,99577.84
2018-02-08T22:52:36.800Z,99573.38
2018-02-08T22:55:05.346Z,99573.64
2018-02-08T22:57:34.819Z,99575.47
2018-02-08T23:00:03.440Z,99574.48
2018-02-08T23:02:32.755Z,99583.28
2018-02-08T23:05:01.569Z,99575.17
2018-02-08T23:07:30.130Z,99576.52
2018-02-08T23:09:58.698Z,99573.97
2018-02-08T23:12:27.309Z,99574.96
2018-02-08T23:14:55.936Z,99576.61
2018-02-08T23:17:24.515Z,99585.62
2018-02-08T23:19:55.017Z,99584.73
2018-02-08T23:22:23.568Z,99586.78
2018-02-08T23:24:52.132Z,99584.75
2018-02-08T23:27:21.504Z,99581.69
2018-02-08T23:29:50.071Z,99585.36
2018-02-08T23:32:18.713Z,99587.39
2018-02-08T23:34:47.540Z,99581.89
2018-02-08T23:37:16.091Z,99581.43
2018-02-08T23:39:44.653Z,99586.17
2018-02-08T23:42:14.020Z,99584.75
2018-02-08T23:44:42.616Z,99595.30
2018-02-08T23:47:12.684Z,99603.78
2018-02-08T23:49:41.424Z,99605.70
2018-02-08T23:52:09.984Z,99604.73
2018-02-08T23:54:38.580Z,99604.05
2018-02-08T23:57:07.282Z,99607.69
2018-02-08T23:59:35.832Z,99605.22
